Time;durP1;ratioP1;P1;durP2;ratioP2;P2;SDS_P1;SDS_P2;PMS_P1;PMS_P2;Temp;Humidity;BMP_temperature;BMP_pressure;BME280_temperature;BME280_humidity;BME280_pressure;Samples;Min_cycle;Max_cycle;Signal;HPM_P1;HPM_P2
2022/06/13 00:01:55;;;;;;;;;;;;;;;28.45;39.33;94500.56;5031321;28;9390;-58
2022/06/13 00:04:21;;;;;;;;;;;;;;;28.45;39.31;94500.56;5024444;28;7179;-58
2022/06/13 00:06:59;;;;;;;;;;;;;;;28.46;39.67;94493.03;5009980;28;7200;-58
2022/06/13 00:09:27;;;;;;;;;;;;;;;28.46;39.88;94488.25;5019211;28;9081;-59
2022/06/13 00:11:53;;;;;;;;;;;;;;;28.46;39.31;94488.25;5039665;28;7898;-58
2022/06/13 00:14:19;;;;;;;;;;;;;;;28.44;39.90;94488.03;5040964;28;8964;-58
2022/06/13 00:16:45;;;;;;;;;;;;;;;28.41;39.20;94488.31;5058454;28;6970;-58
2022/06/13 00:19:11;;;;;;;;;;;;;;;28.43;39.50;94488.56;5049848;28;7267;-58
2022/06/13 00:21:38;;;;;;;;;;;;;;;28.42;39.35;94487.81;5038112;28;9473;-58
2022/06/13 00:24:07;;;;;;;;;;;;;;;28.41;39.25;94486.31;5043791;28;9188;-58
2022/06/13 00:26:37;;;;;;;;;;;;;;;28.41;39.23;94482.78;5045482;28;7277;-58
2022/06/13 00:29:24;;;;;;;;;;;;;;;28.41;39.07;94489.06;5056471;28;7053;-58
2022/06/13 00:32:41;;;;;;;;;;;;;;;28.38;39.42;94490.16;5052080;28;9299;-58
2022/06/13 00:35:10;;;;;;;;;;;;;;;28.34;39.27;94490.44;5061828;28;7181;-58
2022/06/13 00:37:51;;;;;;;;;;;;;;;28.30;39.46;94490.00;5039043;28;7282;-58
2022/06/13 00:40:19;;;;;;;;;;;;;;;28.33;39.82;94490.97;5044339;28;7013;-58
2022/06/13 00:42:46;;;;;;;;;;;;;;;28.31;39.76;94493.53;5038986;28;7156;-58
2022/06/13 00:45:18;;;;;;;;;;;;;;;28.31;39.36;94493.53;5040178;28;8078;-58
2022/06/13 00:47:55;;;;;;;;;;;;;;;28.31;39.72;94485.97;5052486;28;7171;-58
2022/06/13 00:50:24;;;;;;;;;;;;;;;28.33;39.48;94482.69;5052285;28;8846;-57
2022/06/13 00:53:04;;;;;;;;;;;;;;;28.32;39.44;94486.69;5048671;28;7436;-57
2022/06/13 00:56:06;;;;;;;;;;;;;;;28.33;39.64;94493.75;5043931;28;9140;-57
2022/06/13 00:58:43;;;;;;;;;;;;;;;28.30;39.76;94483.72;5045836;28;9161;-57
2022/06/13 01:01:11;;;;;;;;;;;;;;;28.26;39.78;94481.25;5042223;28;8976;-57
2022/06/13 01:03:38;;;;;;;;;;;;;;;28.24;39.79;94492.13;5052353;28;7000;-57
2022/06/13 01:06:06;;;;;;;;;;;;;;;28.27;39.40;94482.03;5047913;28;8946;-57
2022/06/13 01:08:40;;;;;;;;;;;;;;;28.26;39.85;94486.03;5066358;28;9031;-57
2022/06/13 01:11:23;;;;;;;;;;;;;;;28.27;39.75;94476.50;5058242;28;9763;-57
2022/06/13 01:14:21;;;;;;;;;;;;;;;28.27;39.70;94479.25;5060202;28;7077;-57
2022/06/13 01:17:21;;;;;;;;;;;;;;;28.26;39.87;94481.25;5037206;28;6991;-57
2022/06/13 01:20:10;;;;;;;;;;;;;;;28.28;39.69;94478.72;5044709;28;9100;-57
2022/06/13 01:22:59;;;;;;;;;;;;;;;28.27;39.78;94479.25;5043337;28;9083;-57
2022/06/13 01:26:04;;;;;;;;;;;;;;;28.28;39.60;94483.50;5063973;28;7324;-57
2022/06/13 01:28:57;;;;;;;;;;;;;;;28.28;39.71;94489.03;5046027;28;8981;-57
2022/06/13 01:31:49;;;;;;;;;;;;;;;28.29;39.46;94494.06;5048077;28;8699;-57
2022/06/13 01:34:40;;;;;;;;;;;;;;;28.27;39.72;94488.28;5051057;28;7199;-57
2022/06/13 01:37:33;;;;;;;;;;;;;;;28.29;39.38;94490.53;5054482;28;6971;-57
2022/06/13 01:40:15;;;;;;;;;;;;;;;28.27;39.61;94488.28;5043559;28;7258;-57
2022/06/13 01:43:24;;;;;;;;;;;;;;;28.29;39.88;94490.53;5037930;28;7194;-57
2022/06/13 01:46:08;;;;;;;;;;;;;;;28.30;39.70;94486.47;5041324;28;7629;-57
2022/06/13 01:49:04;;;;;;;;;;;;;;;28.30;39.65;94484.47;5035404;28;7246;-57
2022/06/13 01:52:06;;;;;;;;;;;;;;;28.29;39.63;94491.28;5035673;28;7164;-57
2022/06/13 01:54:48;;;;;;;;;;;;;;;28.26;39.56;94486.03;5044976;28;7054;-57
2022/06/13 01:57:39;;;;;;;;;;;;;;;28.27;39.60;94493.81;5037251;28;9040;-57
2022/06/13 02:00:09;;;;;;;;;;;;;;;28.26;39.62;94495.09;5054277;28;8444;-57
2022/06/13 02:02:49;;;;;;;;;;;;;;;28.25;39.63;94495.63;5052185;28;7163;-57
2022/06/13 02:05:36;;;;;;;;;;;;;;;28.24;39.57;94494.88;5047360;28;8572;-57
2022/06/13 02:08:17;;;;;;;;;;;;;;;28.24;39.79;94505.19;5045430;28;9063;-57
2022/06/13 02:11:08;;;;;;;;;;;;;;;28.21;39.72;94498.69;5035793;28;7398;-57
2022/06/13 02:13:47;;;;;;;;;;;;;;;28.22;39.80;94491.91;5051718;28;7252;-57
2022/06/13 02:17:07;;;;;;;;;;;;;;;28.22;39.57;94494.66;5039938;28;7344;-57
2022/06/13 02:20:13;;;;;;;;;;;;;;;28.24;39.63;94502.41;4983053;28;7462;-57
2022/06/13 02:23:02;;;;;;;;;;;;;;;28.23;39.85;94500.94;4911262;29;7268;-57
2022/06/13 02:25:36;;;;;;;;;;;;;;;28.24;39.69;94500.41;4914203;29;9124;-58
2022/06/13 02:28:21;;;;;;;;;;;;;;;28.22;39.90;94505.72;4931436;29;9082;-57
2022/06/13 02:31:03;;;;;;;;;;;;;;;28.24;39.82;94505.94;4930873;29;8760;-57
2022/06/13 02:33:58;;;;;;;;;;;;;;;28.24;39.63;94505.94;4917765;29;7250;-57
2022/06/13 02:36:59;;;;;;;;;;;;;;;28.25;39.57;94501.16;4873472;29;8733;-57
2022/06/13 02:40:01;;;;;;;;;;;;;;;28.24;39.69;94496.88;4874783;29;7007;-57
2022/06/13 02:42:42;;;;;;;;;;;;;;;28.25;39.42;94490.09;4869820;29;7699;-57
2022/06/13 02:45:17;;;;;;;;;;;;;;;28.23;39.70;94478.81;4849875;29;7032;-57
2022/06/13 02:48:08;;;;;;;;;;;;;;;28.24;39.75;94485.81;4865889;29;7551;-57
2022/06/13 02:50:41;;;;;;;;;;;;;;;28.22;39.81;94480.84;4872017;29;7507;-57
2022/06/13 02:53:20;;;;;;;;;;;;;;;28.20;39.64;94469.53;4856464;29;9105;-57
2022/06/13 02:55:59;;;;;;;;;;;;;;;28.22;39.79;94477.31;4887340;29;6992;-57
2022/06/13 02:58:48;;;;;;;;;;;;;;;28.20;39.87;94486.16;4931935;28;8185;-57
2022/06/13 03:01:25;;;;;;;;;;;;;;;28.21;39.43;94473.03;4952541;28;7144;-57
2022/06/13 03:03:54;;;;;;;;;;;;;;;28.20;39.54;94477.09;4944895;28;7268;-57
2022/06/13 03:06:45;;;;;;;;;;;;;;;28.23;39.62;94490.59;4950805;28;7287;-57
2022/06/13 03:09:49;;;;;;;;;;;;;;;28.21;39.57;94498.69;4936238;28;9044;-58
2022/06/13 03:12:18;;;;;;;;;;;;;;;28.21;39.54;94495.16;4960181;28;8922;-58
2022/06/13 03:15:03;;;;;;;;;;;;;;;28.22;39.47;94497.44;5044061;28;6996;-58
2022/06/13 03:17:46;;;;;;;;;;;;;;;28.21;39.56;94500.69;5034860;28;7135;-57
2022/06/13 03:20:32;;;;;;;;;;;;;;;28.21;39.75;94500.69;5045990;28;7547;-57
2022/06/13 03:23:36;;;;;;;;;;;;;;;28.22;39.89;94505.72;5054516;28;9030;-57
2022/06/13 03:26:13;;;;;;;;;;;;;;;28.23;39.54;94509.25;5056112;28;9214;-57
2022/06/13 03:29:13;;;;;;;;;;;;;;;28.24;39.43;94505.19;5044693;28;7018;-57
2022/06/13 03:31:53;;;;;;;;;;;;;;;28.23;39.59;94509.25;5058339;28;7001;-57
2022/06/13 03:34:28;;;;;;;;;;;;;;;28.21;39.55;94522.81;5043061;28;8818;-57
2022/06/13 03:37:04;;;;;;;;;;;;;;;28.22;39.59;94524.34;5040745;28;7336;-57
2022/06/13 03:40:11;;;;;;;;;;;;;;;28.21;39.59;94518.03;5066846;28;8283;-57
2022/06/13 03:42:57;;;;;;;;;;;;;;;28.21;39.18;94500.69;4981729;28;9067;-57
2022/06/13 03:45:49;;;;;;;;;;;;;;;28.20;39.46;94511.03;4976093;28;9102;-57
2022/06/13 03:48:27;;;;;;;;;;;;;;;28.21;39.66;94509.75;4983815;28;8780;-57
2022/06/13 03:51:04;;;;;;;;;;;;;;;28.21;39.17;94495.16;4973673;28;9157;-57
2022/06/13 03:54:18;;;;;;;;;;;;;;;28.21;39.80;94500.69;4967567;28;7403;-57
2022/06/13 03:56:54;;;;;;;;;;;;;;;28.21;39.62;94511.75;4935335;29;9006;-57
2022/06/13 03:59:31;;;;;;;;;;;;;;;28.21;39.13;94517.28;4927196;29;8960;-57
2022/06/13 04:02:03;;;;;;;;;;;;;;;28.22;39.66;94513.25;4934294;29;9352;-57
2022/06/13 04:04:46;;;;;;;;;;;;;;;28.21;39.50;94511.75;4931789;29;9450;-57
2022/06/13 04:07:25;;;;;;;;;;;;;;;28.20;39.60;94521.34;4932879;29;7785;-58
2022/06/13 04:10:10;;;;;;;;;;;;;;;28.22;39.57;94510.50;4934995;29;9125;-57
2022/06/13 04:12:43;;;;;;;;;;;;;;;28.24;39.49;94505.19;4932751;29;7231;-57
2022/06/13 04:16:05;;;;;;;;;;;;;;;28.24;39.64;94497.66;4932011;29;7149;-57
2022/06/13 04:19:28;;;;;;;;;;;;;;;28.23;39.66;94498.19;4948637;28;7312;-57
2022/06/13 04:22:16;;;;;;;;;;;;;;;28.24;39.33;94499.66;4924631;29;8419;-57
2022/06/13 04:25:00;;;;;;;;;;;;;;;28.20;39.72;94511.03;4930722;29;7175;-57
2022/06/13 04:28:01;;;;;;;;;;;;;;;28.19;39.64;94514.31;4931598;29;7283;-57
2022/06/13 04:30:51;;;;;;;;;;;;;;;28.21;39.17;94515.28;4932933;28;8779;-57
2022/06/13 04:33:38;;;;;;;;;;;;;;;28.21;39.07;94512.50;4933845;29;7215;-57
2022/06/13 04:36:18;;;;;;;;;;;;;;;28.21;39.66;94520.06;4934512;29;8747;-57
2022/06/13 04:38:52;;;;;;;;;;;;;;;28.20;39.50;94522.09;4928950;29;9061;-57
2022/06/13 04:41:35;;;;;;;;;;;;;;;28.17;40.18;94514.84;4928795;29;9049;-57
2022/06/13 04:44:16;;;;;;;;;;;;;;;28.14;39.61;94520.69;4930328;28;9074;-57
2022/06/13 04:46:44;;;;;;;;;;;;;;;28.13;39.92;94530.25;4913572;29;7248;-57
2022/06/13 04:49:53;;;;;;;;;;;;;;;28.13;40.02;94521.94;4933779;29;6999;-57
2022/06/13 04:52:29;;;;;;;;;;;;;;;28.15;39.49;94522.16;4961944;28;9075;-57
2022/06/13 04:55:29;;;;;;;;;;;;;;;28.15;39.92;94524.94;4992200;28;8204;-57
2022/06/13 04:57:55;;;;;;;;;;;;;;;28.11;39.88;94525.25;4960815;28;7002;-57
2022/06/13 05:00:21;;;;;;;;;;;;;;;28.09;40.29;94533.31;4955605;28;7022;-57
2022/06/13 05:02:52;;;;;;;;;;;;;;;28.06;39.90;94537.13;4965508;28;7101;-57
2022/06/13 05:05:39;;;;;;;;;;;;;;;28.06;40.25;94542.66;4952455;28;7033;-57
2022/06/13 05:08:32;;;;;;;;;;;;;;;28.06;40.23;94548.19;4945143;28;7067;-58
2022/06/13 05:11:37;;;;;;;;;;;;;;;28.05;40.26;94554.25;4955420;28;7271;-57
2022/06/13 05:14:31;;;;;;;;;;;;;;;28.06;40.53;94555.72;4954281;28;7305;-58
2022/06/13 05:17:11;;;;;;;;;;;;;;;28.07;40.56;94557.22;4951304;28;8930;-57
2022/06/13 05:20:01;;;;;;;;;;;;;;;28.09;40.67;94552.66;4945678;28;6865;-58
2022/06/13 05:22:46;;;;;;;;;;;;;;;28.09;40.55;94543.63;4966461;28;7219;-57
2022/06/13 05:25:23;;;;;;;;;;;;;;;28.08;41.30;94558.72;4952503;28;8215;-57
2022/06/13 05:27:49;;;;;;;;;;;;;;;28.08;40.49;94567.00;4962629;28;8782;-58
2022/06/13 05:30:17;;;;;;;;;;;;;;;28.07;40.41;94566.28;4948869;28;7474;-58
2022/06/13 05:32:49;;;;;;;;;;;;;;;28.09;40.73;94563.72;4948416;28;9070;-57
2022/06/13 05:35:26;;;;;;;;;;;;;;;28.08;40.83;94564.25;5018241;28;7466;-57
2022/06/13 05:37:56;;;;;;;;;;;;;;;28.07;40.77;94560.00;5055152;28;9366;-57
2022/06/13 05:40:24;;;;;;;;;;;;;;;28.06;40.85;94558.50;5054404;28;7518;-58
2022/06/13 05:42:50;;;;;;;;;;;;;;;28.03;40.98;94559.56;5033085;28;6995;-58
2022/06/13 05:45:22;;;;;;;;;;;;;;;28.05;41.35;94570.84;5041778;28;7291;-57
2022/06/13 05:47:55;;;;;;;;;;;;;;;28.03;41.02;94568.59;5041710;28;9098;-58
2022/06/13 05:50:32;;;;;;;;;;;;;;;28.04;40.98;94569.31;5043009;28;7123;-58
2022/06/13 05:53:00;;;;;;;;;;;;;;;28.03;41.04;94571.38;5045921;28;9176;-58
2022/06/13 05:55:26;;;;;;;;;;;;;;;28.03;41.23;94578.91;5059232;28;7280;-58
2022/06/13 05:57:52;;;;;;;;;;;;;;;28.01;41.61;94578.69;5045902;28;6945;-58
2022/06/13 06:00:28;;;;;;;;;;;;;;;28.04;41.08;94574.84;5052777;28;7076;-58
2022/06/13 06:02:57;;;;;;;;;;;;;;;28.04;41.01;94572.84;5042216;28;7128;-58
2022/06/13 06:05:23;;;;;;;;;;;;;;;28.06;41.83;94577.84;5045412;28;8096;-58
2022/06/13 06:07:51;;;;;;;;;;;;;;;28.07;41.29;94576.59;5030748;28;7160;-58
2022/06/13 06:10:26;;;;;;;;;;;;;;;28.05;41.72;94576.38;5040658;28;7340;-58
2022/06/13 06:12:52;;;;;;;;;;;;;;;28.04;41.48;94574.84;5043806;28;7235;-58
2022/06/13 06:15:25;;;;;;;;;;;;;;;28.06;41.57;94573.06;5043757;28;9538;-57
2022/06/13 06:17:51;;;;;;;;;;;;;;;28.07;41.23;94576.59;5046678;28;7273;-58
2022/06/13 06:20:22;;;;;;;;;;;;;;;28.06;41.74;94572.31;5053363;28;9038;-57
2022/06/13 06:23:16;;;;;;;;;;;;;;;28.06;41.39;94583.38;5050425;28;7300;-57
2022/06/13 06:26:02;;;;;;;;;;;;;;;28.06;41.75;94575.84;4976933;28;7021;-57
2022/06/13 06:28:32;;;;;;;;;;;;;;;28.07;41.60;94573.81;4963179;28;7156;-57
2022/06/13 06:31:03;;;;;;;;;;;;;;;28.07;41.37;94580.09;4985613;28;6873;-58
2022/06/13 06:33:29;;;;;;;;;;;;;;;28.07;41.35;94590.41;4977674;28;9086;-58
2022/06/13 06:36:03;;;;;;;;;;;;;;;28.07;41.40;94593.19;4982253;28;9201;-58
2022/06/13 06:38:31;;;;;;;;;;;;;;;28.08;40.95;94592.66;4982117;28;7299;-57
2022/06/13 06:41:00;;;;;;;;;;;;;;;28.08;41.18;94584.34;4972856;28;6976;-57
2022/06/13 06:43:26;;;;;;;;;;;;;;;28.07;41.28;94582.88;4984003;28;7235;-58
2022/06/13 06:45:55;;;;;;;;;;;;;;;28.08;41.71;94591.88;4958739;28;7037;-58
2022/06/13 06:48:33;;;;;;;;;;;;;;;28.06;41.36;94599.97;4962398;28;7568;-58
2022/06/13 06:51:31;;;;;;;;;;;;;;;28.06;41.71;94583.38;4980582;28;7321;-58
2022/06/13 07:02:15;;;;;;;;;;;;;;;28.06;41.91;94599.97;4957745;28;7227;-58
2022/06/13 07:04:44;;;;;;;;;;;;;;;28.05;41.83;94609.53;5011924;28;7018;-58
2022/06/13 07:07:12;;;;;;;;;;;;;;;28.04;41.70;94610.81;5008406;28;8227;-58
2022/06/13 07:09:47;;;;;;;;;;;;;;;28.03;41.98;94617.63;5011867;28;9039;-58
2022/06/13 07:12:14;;;;;;;;;;;;;;;28.01;41.71;94631.97;4999867;28;7332;-58
2022/06/13 07:14:50;;;;;;;;;;;;;;;28.01;41.32;94631.22;4991806;28;8926;-58
2022/06/13 07:17:17;;;;;;;;;;;;;;;27.99;41.85;94631.00;5003781;28;7238;-58
2022/06/13 07:19:53;;;;;;;;;;;;;;;27.99;41.86;94626.19;4992345;28;9179;-59
2022/06/13 07:22:27;;;;;;;;;;;;;;;28.02;41.86;94622.38;4989579;28;7879;-58
2022/06/13 07:24:55;;;;;;;;;;;;;;;28.01;41.91;94628.44;4995104;28;7223;-58
2022/06/13 07:27:21;;;;;;;;;;;;;;;27.97;41.21;94637.03;5005496;28;9133;-58
2022/06/13 07:30:01;;;;;;;;;;;;;;;27.95;42.08;94634.00;5017857;28;7561;-58
2022/06/13 07:32:32;;;;;;;;;;;;;;;27.97;42.17;94644.56;5053443;28;9224;-58
2022/06/13 07:35:02;;;;;;;;;;;;;;;27.95;41.86;94633.28;5058324;28;7266;-58
2022/06/13 07:40:16;;;;;;;;;;;;;;;27.94;41.51;94646.34;5054932;28;9138;-58
2022/06/13 07:42:54;;;;;;;;;;;;;;;27.94;41.88;94651.13;5050046;28;9317;-58
2022/06/13 07:45:24;;;;;;;;;;;;;;;27.95;41.48;94652.63;5053763;28;7130;-58
2022/06/13 07:47:51;;;;;;;;;;;;;;;27.93;41.51;94653.13;5051165;28;9061;-58
2022/06/13 07:50:21;;;;;;;;;;;;;;;27.95;41.64;94652.63;5069465;28;7483;-58
2022/06/13 07:52:54;;;;;;;;;;;;;;;27.97;41.40;94653.63;5045055;28;7218;-58
2022/06/13 07:55:25;;;;;;;;;;;;;;;27.98;41.24;94657.88;5069088;28;7180;-58
2022/06/13 07:57:51;;;;;;;;;;;;;;;27.98;41.80;94654.38;5047911;28;9462;-58
2022/06/13 08:00:22;;;;;;;;;;;;;;;27.97;41.62;94650.09;5036074;28;9455;-58
2022/06/13 08:02:49;;;;;;;;;;;;;;;27.98;41.23;94657.88;5040583;28;9178;-58
2022/06/13 08:05:18;;;;;;;;;;;;;;;27.98;41.26;94644.06;5039428;28;7197;-58
2022/06/13 08:07:44;;;;;;;;;;;;;;;27.99;41.56;94651.06;5044202;28;7224;-58
2022/06/13 08:10:13;;;;;;;;;;;;;;;27.99;41.35;94650.34;5046058;28;9141;-58
2022/06/13 08:12:43;;;;;;;;;;;;;;;27.97;41.31;94652.84;5061343;28;9538;-58
2022/06/13 08:15:11;;;;;;;;;;;;;;;27.97;41.36;94650.09;5061700;28;9061;-58
2022/06/13 08:17:38;;;;;;;;;;;;;;;27.96;41.38;94643.81;5051341;28;7117;-58
2022/06/13 08:20:14;;;;;;;;;;;;;;;27.97;41.33;94652.84;5037309;28;7567;-58
2022/06/13 08:22:44;;;;;;;;;;;;;;;27.97;40.73;94661.16;5055813;28;7857;-58
2022/06/13 08:25:25;;;;;;;;;;;;;;;27.97;41.82;94655.63;5052837;28;8982;-58
2022/06/13 08:27:52;;;;;;;;;;;;;;;27.96;41.90;94668.69;5051220;28;8272;-58
2022/06/13 08:30:19;;;;;;;;;;;;;;;27.96;41.37;94670.69;5046494;28;9139;-58
2022/06/13 08:32:45;;;;;;;;;;;;;;;27.93;41.53;94663.44;5051162;28;7229;-58
2022/06/13 08:35:14;;;;;;;;;;;;;;;27.95;41.56;94674.75;5064642;28;9049;-58
2022/06/13 08:37:42;;;;;;;;;;;;;;;27.95;41.11;94678.25;5053353;28;7588;-58
2022/06/13 08:40:57;;;;;;;;;;;;;;;27.96;41.71;94682.50;5048326;28;7271;-58
2022/06/13 08:44:00;;;;;;;;;;;;;;;27.97;41.40;94680.50;5007792;28;7164;-58
2022/06/13 08:47:04;;;;;;;;;;;;;;;27.97;41.58;94680.50;5005976;28;7106;-58
2022/06/13 08:49:49;;;;;;;;;;;;;;;27.98;41.47;94679.25;4987610;28;9514;-58
2022/06/13 08:52:56;;;;;;;;;;;;;;;27.97;41.50;94686.78;5007668;28;9122;-58
2022/06/13 08:55:22;;;;;;;;;;;;;;;27.97;41.59;94688.81;5003563;28;7199;-58
2022/06/13 08:58:33;;;;;;;;;;;;;;;27.98;41.32;94687.53;5011306;28;7273;-58
2022/06/13 09:01:15;;;;;;;;;;;;;;;27.96;41.57;94695.59;4908815;29;7182;-58
2022/06/13 09:03:56;;;;;;;;;;;;;;;27.95;41.60;94694.09;4928861;29;8753;-58
2022/06/13 09:06:51;;;;;;;;;;;;;;;27.96;41.57;94701.13;4939436;28;7008;-58
2022/06/13 09:09:41;;;;;;;;;;;;;;;27.95;41.61;94699.63;4908766;29;7228;-58
2022/06/13 09:12:31;;;;;;;;;;;;;;;27.96;41.62;94699.09;4912904;29;7347;-58
2022/06/13 09:15:22;;;;;;;;;;;;;;;27.95;41.60;94707.94;4907417;29;7324;-58
2022/06/13 09:18:34;;;;;;;;;;;;;;;27.95;41.48;94710.69;4904373;29;7279;-58
2022/06/13 09:21:38;;;;;;;;;;;;;;;27.96;41.98;94717.69;4973870;28;8888;-58
2022/06/13 09:24:42;;;;;;;;;;;;;;;27.94;41.45;94718.22;4978395;28;7879;-58
2022/06/13 09:27:49;;;;;;;;;;;;;;;27.95;41.64;94722.47;4990912;28;6979;-58
2022/06/13 09:30:42;;;;;;;;;;;;;;;27.96;41.52;94720.47;4943911;28;7005;-58
2022/06/13 09:33:33;;;;;;;;;;;;;;;27.95;41.68;94730.03;5024742;28;8188;-58
2022/06/13 09:36:32;;;;;;;;;;;;;;;27.91;42.12;94727.56;5021569;28;7241;-58
2022/06/13 09:39:08;;;;;;;;;;;;;;;27.90;42.33;94730.84;4914474;29;9062;-58
2022/06/13 09:42:14;;;;;;;;;;;;;;;27.89;41.91;94734.84;4911130;29;9216;-58
2022/06/13 09:44:56;;;;;;;;;;;;;;;27.88;42.01;94734.13;4835348;29;7307;-58
2022/06/13 09:47:48;;;;;;;;;;;;;;;27.87;41.97;94729.84;4839403;29;9064;-58
2022/06/13 09:50:32;;;;;;;;;;;;;;;27.88;42.02;94723.06;4837670;29;9094;-58
2022/06/13 09:53:32;;;;;;;;;;;;;;;27.88;42.16;94717.53;4835524;29;9319;-58
2022/06/13 09:56:12;;;;;;;;;;;;;;;27.89;41.87;94723.81;4788176;29;7071;-58
2022/06/13 09:59:12;;;;;;;;;;;;;;;27.89;42.33;94718.28;4788218;29;9140;-58
2022/06/13 10:02:01;;;;;;;;;;;;;;;27.90;41.90;94719.78;4798068;29;7190;-58
2022/06/13 10:04:29;;;;;;;;;;;;;;;27.88;41.89;94722.31;4802077;29;9394;-58
2022/06/13 10:07:10;;;;;;;;;;;;;;;27.89;41.96;94719.03;4820852;29;7214;-58
2022/06/13 10:10:00;;;;;;;;;;;;;;;27.89;42.26;94718.28;4823254;29;7278;-58
2022/06/13 10:12:42;;;;;;;;;;;;;;;27.92;42.01;94714.47;4819951;29;7265;-58
2022/06/13 10:15:35;;;;;;;;;;;;;;;27.91;42.13;94719.25;4835075;29;7105;-58
2022/06/13 10:18:40;;;;;;;;;;;;;;;27.93;42.00;94713.19;4885509;28;9053;-58
2022/06/13 10:21:36;;;;;;;;;;;;;;;27.93;42.52;94724.25;4950883;28;7308;-58
2022/06/13 10:24:45;;;;;;;;;;;;;;;27.92;41.97;94715.25;4891276;29;7242;-58
2022/06/13 10:28:04;;;;;;;;;;;;;;;27.94;42.15;94720.25;4836491;29;7072;-58
2022/06/13 10:31:06;;;;;;;;;;;;;;;27.95;42.04;94716.94;4825171;29;7395;-58
2022/06/13 10:34:09;;;;;;;;;;;;;;;27.95;41.99;94710.69;4897101;29;9106;-58
2022/06/13 10:37:20;;;;;;;;;;;;;;;27.93;42.03;94718.72;4904259;29;7193;-58
2022/06/13 10:40:05;;;;;;;;;;;;;;;27.93;41.59;94707.66;4879339;29;8922;-58
2022/06/13 10:42:36;;;;;;;;;;;;;;;27.94;41.26;94706.41;4907653;29;7189;-58
2022/06/13 10:45:27;;;;;;;;;;;;;;;27.95;41.98;94702.41;4896946;29;8692;-58
2022/06/13 10:47:59;;;;;;;;;;;;;;;27.93;41.73;94711.19;4883747;29;7242;-58
2022/06/13 10:50:57;;;;;;;;;;;;;;;27.95;42.46;94705.16;4895938;29;9427;-58
2022/06/13 10:53:57;;;;;;;;;;;;;;;27.95;41.80;94714.19;4897227;29;9122;-58
2022/06/13 10:56:41;;;;;;;;;;;;;;;27.98;41.86;94712.44;4931858;29;7263;-58
2022/06/13 10:59:21;;;;;;;;;;;;;;;28.01;41.88;94714.91;4928039;29;8716;-58
2022/06/13 11:02:19;;;;;;;;;;;;;;;28.02;41.39;94716.41;4951711;28;9036;-58
2022/06/13 11:04:45;;;;;;;;;;;;;;;28.03;41.76;94717.16;4979449;28;7519;-57
2022/06/13 11:07:18;;;;;;;;;;;;;;;28.05;41.59;94709.09;5007330;28;7403;-57
2022/06/13 11:09:57;;;;;;;;;;;;;;;28.05;41.43;94720.16;4992442;28;7331;-58
2022/06/13 11:12:40;;;;;;;;;;;;;;;28.06;41.88;94716.09;4989028;28;8091;-58
2022/06/13 11:24:24;;;;;;;;;;;;;;;28.09;40.98;94713.06;5057142;28;9160;-58
2022/06/13 11:27:39;;;;;;;;;;;;;;;28.12;41.39;94703.00;5042397;28;8763;-58
2022/06/13 11:30:33;;;;;;;;;;;;;;;28.12;41.58;94703.72;5035049;28;7210;-58
2022/06/13 11:33:10;;;;;;;;;;;;;;;28.10;41.47;94697.22;5048986;28;7238;-58
2022/06/13 11:35:58;;;;;;;;;;;;;;;28.12;41.45;94700.22;5032687;28;8712;-58
2022/06/13 11:38:34;;;;;;;;;;;;;;;28.11;41.33;94696.69;5051904;28;6992;-58
2022/06/13 11:41:24;;;;;;;;;;;;;;;28.13;41.31;94696.16;5046931;28;8842;-58
2022/06/13 11:44:02;;;;;;;;;;;;;;;28.13;41.32;94693.41;5040532;28;7269;-58
2022/06/13 11:46:28;;;;;;;;;;;;;;;28.10;41.33;94694.47;5054407;28;9832;-58
2022/06/13 11:48:57;;;;;;;;;;;;;;;28.06;41.42;94688.44;5048505;28;7008;-58
2022/06/13 11:51:42;;;;;;;;;;;;;;;28.03;41.76;94692.28;5047903;28;7063;-58
2022/06/13 11:54:47;;;;;;;;;;;;;;;28.03;41.45;94689.50;5055781;28;7277;-58
2022/06/13 11:57:17;;;;;;;;;;;;;;;28.02;40.85;94694.28;4953500;28;9364;-58
2022/06/13 11:59:49;;;;;;;;;;;;;;;28.03;40.89;94689.50;4950844;28;7005;-58
2022/06/13 12:02:26;;;;;;;;;;;;;;;28.03;41.61;94692.28;4967024;28;7264;-58
2022/06/13 12:04:56;;;;;;;;;;;;;;;28.03;41.21;94684.72;4960589;28;7281;-58
2022/06/13 12:07:31;;;;;;;;;;;;;;;28.03;41.28;94689.50;4947217;28;8715;-58
2022/06/13 12:10:00;;;;;;;;;;;;;;;28.01;41.20;94692.03;4960646;28;7309;-58
2022/06/13 12:12:44;;;;;;;;;;;;;;;28.01;41.91;94683.75;4958439;28;7001;-58
2022/06/13 12:15:14;;;;;;;;;;;;;;;28.03;41.51;94679.19;4953010;28;9179;-58
2022/06/13 12:18:06;;;;;;;;;;;;;;;28.03;41.81;94681.22;4965679;28;7326;-58
2022/06/13 12:21:11;;;;;;;;;;;;;;;28.04;41.65;94679.94;4972544;28;9070;-58
2022/06/13 12:24:04;;;;;;;;;;;;;;;28.04;41.63;94688.22;4925212;29;7231;-58
2022/06/13 12:26:35;;;;;;;;;;;;;;;28.04;41.50;94674.41;4928031;29;6991;-58
2022/06/13 12:29:04;;;;;;;;;;;;;;;28.04;41.52;94677.91;4932104;29;8985;-57
2022/06/13 12:31:52;;;;;;;;;;;;;;;28.06;41.25;94675.38;4959153;28;7382;-58
2022/06/13 12:34:30;;;;;;;;;;;;;;;28.05;41.08;94681.44;4974251;28;7062;-58
2022/06/13 12:37:20;;;;;;;;;;;;;;;28.08;41.40;94674.84;4977582;28;7390;-58
2022/06/13 12:40:33;;;;;;;;;;;;;;;28.10;41.01;94672.34;4973866;28;7372;-58
2022/06/13 12:43:43;;;;;;;;;;;;;;;28.12;41.16;94678.09;4944329;28;7072;-58
2022/06/13 12:47:02;;;;;;;;;;;;;;;28.10;40.92;94683.41;4956690;28;9038;-58
2022/06/13 12:49:58;;;;;;;;;;;;;;;28.10;41.08;94672.34;4910881;29;7671;-58
2022/06/13 12:52:59;;;;;;;;;;;;;;;28.14;40.86;94675.56;4911697;29;9182;-58
2022/06/13 12:55:30;;;;;;;;;;;;;;;28.17;40.61;94674.50;4911736;29;7236;-58
2022/06/13 12:58:14;;;;;;;;;;;;;;;28.17;40.97;94674.50;4935223;28;7343;-58
2022/06/13 13:00:58;;;;;;;;;;;;;;;28.19;40.75;94669.19;4949949;28;9229;-58
2022/06/13 13:04:01;;;;;;;;;;;;;;;28.20;41.25;94670.69;4941332;28;9039;-58
2022/06/13 13:06:58;;;;;;;;;;;;;;;28.20;40.77;94676.22;4950426;28;7161;-58
2022/06/13 13:09:35;;;;;;;;;;;;;;;28.20;40.45;94670.69;4951362;28;9158;-58
2022/06/13 13:12:46;;;;;;;;;;;;;;;28.22;40.71;94670.91;4949436;28;8106;-58
2022/06/13 13:15:32;;;;;;;;;;;;;;;28.23;40.51;94666.91;4949576;28;9299;-58
2022/06/13 13:18:05;;;;;;;;;;;;;;;28.24;40.50;94671.91;4949627;28;8979;-58
2022/06/13 13:20:41;;;;;;;;;;;;;;;28.26;40.27;94663.06;4993751;28;7455;-58
2022/06/13 13:23:31;;;;;;;;;;;;;;;28.27;40.71;94672.88;5010194;28;7169;-58
2022/06/13 13:26:09;;;;;;;;;;;;;;;28.29;40.39;94662.03;5038789;28;9879;-58
2022/06/13 13:28:56;;;;;;;;;;;;;;;28.30;40.81;94663.53;5041621;28;7914;-58
2022/06/13 13:31:57;;;;;;;;;;;;;;;28.31;40.36;94659.50;5054595;28;7243;-58
2022/06/13 13:35:08;;;;;;;;;;;;;;;28.33;40.38;94662.50;5047632;28;9036;-57
2022/06/13 13:38:01;;;;;;;;;;;;;;;28.33;40.68;94656.97;5053438;28;8095;-57
2022/06/13 13:40:31;;;;;;;;;;;;;;;28.34;40.78;94652.91;5046914;28;7393;-57
2022/06/13 13:43:18;;;;;;;;;;;;;;;28.34;41.04;94658.44;5051128;28;9380;-57
2022/06/13 13:46:09;;;;;;;;;;;;;;;28.34;40.91;94655.66;5045035;28;7314;-57
2022/06/13 13:52:10;;;;;;;;;;;;;;;28.34;40.73;94661.19;5064013;28;7269;-57
2022/06/13 13:55:20;;;;;;;;;;;;;;;28.37;40.53;94646.34;5042736;28;8823;-57
2022/06/13 13:58:00;;;;;;;;;;;;;;;28.38;40.27;94648.56;4972850;28;7246;-57
2022/06/13 14:00:38;;;;;;;;;;;;;;;28.40;40.33;94655.59;4991917;28;9484;-58
2022/06/13 14:03:21;;;;;;;;;;;;;;;28.41;40.31;94652.31;4974235;28;8777;-58
2022/06/13 14:06:07;;;;;;;;;;;;;;;28.41;40.48;94638.47;4984181;28;8770;-58
2022/06/13 14:08:49;;;;;;;;;;;;;;;28.42;40.57;94648.28;4972999;28;7339;-58
2022/06/13 14:11:17;;;;;;;;;;;;;;;28.45;40.49;94652.75;4991829;28;9216;-58
2022/06/13 14:14:20;;;;;;;;;;;;;;;28.47;40.52;94649.50;4984407;28;8910;-59
2022/06/13 14:16:48;;;;;;;;;;;;;;;28.46;40.35;94645.22;4964793;28;7886;-58
2022/06/13 14:19:40;;;;;;;;;;;;;;;28.47;40.42;94644.69;4959692;28;9412;-58
2022/06/13 14:22:46;;;;;;;;;;;;;;;28.50;40.58;94638.09;4986928;28;6995;-58
2022/06/13 14:25:40;;;;;;;;;;;;;;;28.51;40.48;94636.84;4910110;29;7321;-58
2022/06/13 14:28:42;;;;;;;;;;;;;;;28.53;40.61;94634.31;4930525;28;7153;-58
2022/06/13 14:31:18;;;;;;;;;;;;;;;28.56;40.51;94632.50;4988215;28;9362;-58
2022/06/13 14:36:50;;;;;;;;;;;;;;;28.57;40.57;94632.00;4986739;28;7263;-59
2022/06/13 14:39:54;;;;;;;;;;;;;;;28.59;40.65;94628.72;4972188;28;7249;-58
2022/06/13 14:43:08;;;;;;;;;;;;;;;28.59;40.51;94629.47;4989165;28;9042;-58
2022/06/13 14:46:15;;;;;;;;;;;;;;;28.63;40.27;94626.38;4989386;28;8740;-58
2022/06/13 14:49:12;;;;;;;;;;;;;;;28.64;40.65;94636.19;4983914;28;8257;-59